sensor_id;sensor_type;location;lat;lon;timestamp;pressure;altitude;pressure_sealevel;temperature;humidity
10921;BME280;5513;50.580;8.818;2023-03-18T00:01:17;98511.38;;;10.55;100.00
10921;BME280;5513;50.580;8.818;2023-03-18T00:03:46;98510.44;;;10.67;100.00
10921;BME280;5513;50.580;8.818;2023-03-18T00:06:18;98525.59;;;10.65;100.00
10921;BME280;5513;50.580;8.818;2023-03-18T00:08:48;98523.25;;;10.73;100.00
10921;BME280;5513;50.580;8.818;2023-03-18T00:11:19;98520.22;;;10.78;100.00
10921;BME280;5513;50.580;8.818;2023-03-18T00:13:51;98527.41;;;10.65;100.00
10921;BME280;5513;50.580;8.818;2023-03-18T00:16:20;98535.34;;;10.65;100.00
10921;BME280;5513;50.580;8.818;2023-03-18T00:18:49;98539.69;;;10.66;100.00
10921;BME280;5513;50.580;8.818;2023-03-18T00:21:21;98540.81;;;10.74;100.00
10921;BME280;5513;50.580;8.818;2023-03-18T00:23:50;98543.88;;;10.57;100.00
10921;BME280;5513;50.580;8.818;2023-03-18T00:26:25;98544.38;;;10.62;100.00
10921;BME280;5513;50.580;8.818;2023-03-18T00:28:56;98552.38;;;10.73;100.00
10921;BME280;5513;50.580;8.818;2023-03-18T00:31:27;98552.81;;;10.67;100.00
10921;BME280;5513;50.580;8.818;2023-03-18T00:33:56;98550.69;;;10.72;100.00
10921;BME280;5513;50.580;8.818;2023-03-18T00:36:31;98554.13;;;10.62;100.00
10921;BME280;5513;50.580;8.818;2023-03-18T00:39:00;98559.59;;;10.47;100.00
10921;BME280;5513;50.580;8.818;2023-03-18T00:41:30;98556.31;;;10.44;100.00
10921;BME280;5513;50.580;8.818;2023-03-18T00:44:02;98564.63;;;10.50;100.00
10921;BME280;5513;50.580;8.818;2023-03-18T00:46:33;98575.41;;;10.60;100.00
10921;BME280;5513;50.580;8.818;2023-03-18T00:49:04;98570.53;;;10.43;100.00
10921;BME280;5513;50.580;8.818;2023-03-18T00:51:36;98587.56;;;10.39;100.00
10921;BME280;5513;50.580;8.818;2023-03-18T00:54:09;98586.50;;;10.41;100.00
10921;BME280;5513;50.580;8.818;2023-03-18T00:56:39;98585.25;;;10.21;100.00
10921;BME280;5513;50.580;8.818;2023-03-18T00:59:07;98599.22;;;10.36;100.00
10921;BME280;5513;50.580;8.818;2023-03-18T01:01:38;98589.91;;;10.43;100.00
10921;BME280;5513;50.580;8.818;2023-03-18T01:04:07;98597.06;;;10.41;100.00
10921;BME280;5513;50.580;8.818;2023-03-18T01:06:37;98593.63;;;10.65;100.00
10921;BME280;5513;50.580;8.818;2023-03-18T01:09:06;98600.13;;;10.48;100.00
10921;BME280;5513;50.580;8.818;2023-03-18T01:11:37;98601.97;;;10.71;100.00
10921;BME280;5513;50.580;8.818;2023-03-18T01:14:06;98610.09;;;10.81;100.00
10921;BME280;5513;50.580;8.818;2023-03-18T01:16:34;98613.09;;;10.87;100.00
10921;BME280;5513;50.580;8.818;2023-03-18T01:19:02;98601.09;;;10.71;100.00
10921;BME280;5513;50.580;8.818;2023-03-18T01:21:31;98591.03;;;10.76;100.00
10921;BME280;5513;50.580;8.818;2023-03-18T01:24:01;98590.50;;;10.95;100.00
10921;BME280;5513;50.580;8.818;2023-03-18T01:26:30;98591.53;;;10.81;100.00
10921;BME280;5513;50.580;8.818;2023-03-18T01:28:59;98575.38;;;10.73;100.00
10921;BME280;5513;50.580;8.818;2023-03-18T01:31:28;98572.56;;;10.63;100.00
10921;BME280;5513;50.580;8.818;2023-03-18T01:33:56;98570.94;;;10.60;100.00
10921;BME280;5513;50.580;8.818;2023-03-18T01:36:25;98577.97;;;10.62;100.00
10921;BME280;5513;50.580;8.818;2023-03-18T01:38:54;98573.72;;;10.59;100.00
10921;BME280;5513;50.580;8.818;2023-03-18T01:41:25;98553.88;;;10.41;100.00
10921;BME280;5513;50.580;8.818;2023-03-18T01:43:53;98557.47;;;10.40;100.00
10921;BME280;5513;50.580;8.818;2023-03-18T01:46:34;98558.13;;;10.43;100.00
10921;BME280;5513;50.580;8.818;2023-03-18T01:49:06;98570.03;;;10.25;100.00
10921;BME280;5513;50.580;8.818;2023-03-18T01:51:36;98568.34;;;10.11;100.00
10921;BME280;5513;50.580;8.818;2023-03-18T01:54:07;98575.97;;;10.03;100.00
10921;BME280;5513;50.580;8.818;2023-03-18T01:56:42;98582.16;;;9.91;100.00
10921;BME280;5513;50.580;8.818;2023-03-18T01:59:11;98579.28;;;9.94;100.00
10921;BME280;5513;50.580;8.818;2023-03-18T02:01:43;98579.28;;;9.94;100.00
10921;BME280;5513;50.580;8.818;2023-03-18T02:04:15;98583.09;;;9.90;100.00
10921;BME280;5513;50.580;8.818;2023-03-18T02:06:45;98589.47;;;9.87;100.00
10921;BME280;5513;50.580;8.818;2023-03-18T02:09:13;98592.84;;;9.89;100.00
10921;BME280;5513;50.580;8.818;2023-03-18T02:11:45;98599.81;;;9.90;100.00
10921;BME280;5513;50.580;8.818;2023-03-18T02:14:18;98597.59;;;9.84;100.00
10921;BME280;5513;50.580;8.818;2023-03-18T02:16:52;98596.44;;;9.88;100.00
10921;BME280;5513;50.580;8.818;2023-03-18T02:19:32;98593.03;;;9.99;100.00
10921;BME280;5513;50.580;8.818;2023-03-18T02:22:11;98595.59;;;9.88;100.00
10921;BME280;5513;50.580;8.818;2023-03-18T02:24:49;98614.41;;;9.83;100.00
10921;BME280;5513;50.580;8.818;2023-03-18T02:27:24;98613.91;;;9.65;100.00
10921;BME280;5513;50.580;8.818;2023-03-18T02:29:56;98605.22;;;9.63;100.00
10921;BME280;5513;50.580;8.818;2023-03-18T02:32:27;98605.44;;;9.48;100.00
10921;BME280;5513;50.580;8.818;2023-03-18T02:34:58;98606.69;;;9.55;100.00
10921;BME280;5513;50.580;8.818;2023-03-18T02:37:28;98609.13;;;9.45;100.00
10921;BME280;5513;50.580;8.818;2023-03-18T02:40:11;98616.44;;;9.41;100.00
10921;BME280;5513;50.580;8.818;2023-03-18T02:42:41;98620.03;;;9.28;100.00
10921;BME280;5513;50.580;8.818;2023-03-18T02:45:16;98618.13;;;9.30;100.00
10921;BME280;5513;50.580;8.818;2023-03-18T02:47:50;98615.03;;;9.36;100.00
10921;BME280;5513;50.580;8.818;2023-03-18T02:50:19;98608.38;;;9.30;100.00
10921;BME280;5513;50.580;8.818;2023-03-18T02:52:49;98615.03;;;9.23;100.00
10921;BME280;5513;50.580;8.818;2023-03-18T02:55:18;98616.38;;;9.16;100.00
10921;BME280;5513;50.580;8.818;2023-03-18T02:57:48;98606.84;;;9.01;100.00
10921;BME280;5513;50.580;8.818;2023-03-18T03:00:17;98611.06;;;9.03;100.00
10921;BME280;5513;50.580;8.818;2023-03-18T03:02:45;98612.97;;;8.88;100.00
10921;BME280;5513;50.580;8.818;2023-03-18T03:05:14;98619.50;;;8.96;100.00
10921;BME280;5513;50.580;8.818;2023-03-18T03:07:42;98625.94;;;8.92;100.00
10921;BME280;5513;50.580;8.818;2023-03-18T03:10:12;98615.41;;;9.04;100.00
10921;BME280;5513;50.580;8.818;2023-03-18T03:12:40;98618.97;;;8.91;100.00
10921;BME280;5513;50.580;8.818;2023-03-18T03:15:11;98620.03;;;8.88;100.00
10921;BME280;5513;50.580;8.818;2023-03-18T03:17:40;98614.09;;;8.84;100.00
10921;BME280;5513;50.580;8.818;2023-03-18T03:20:09;98606.47;;;8.80;100.00
10921;BME280;5513;50.580;8.818;2023-03-18T03:22:39;98603.28;;;8.75;100.00
10921;BME280;5513;50.580;8.818;2023-03-18T03:25:08;98614.19;;;8.83;100.00
10921;BME280;5513;50.580;8.818;2023-03-18T03:27:37;98609.25;;;8.64;100.00
10921;BME280;5513;50.580;8.818;2023-03-18T03:30:07;98615.00;;;8.71;100.00
10921;BME280;5513;50.580;8.818;2023-03-18T03:32:40;98605.72;;;8.78;100.00
10921;BME280;5513;50.580;8.818;2023-03-18T03:35:11;98608.31;;;8.92;100.00
10921;BME280;5513;50.580;8.818;2023-03-18T03:37:40;98619.69;;;8.80;100.00
10921;BME280;5513;50.580;8.818;2023-03-18T03:40:11;98614.41;;;8.80;100.00
10921;BME280;5513;50.580;8.818;2023-03-18T03:42:42;98615.50;;;8.90;100.00
10921;BME280;5513;50.580;8.818;2023-03-18T03:45:11;98617.03;;;8.80;100.00
10921;BME280;5513;50.580;8.818;2023-03-18T03:47:44;98615.38;;;8.92;100.00
10921;BME280;5513;50.580;8.818;2023-03-18T03:50:14;98618.66;;;8.95;100.00
10921;BME280;5513;50.580;8.818;2023-03-18T03:52:44;98613.38;;;8.95;100.00
10921;BME280;5513;50.580;8.818;2023-03-18T03:55:14;98627.13;;;9.00;100.00
10921;BME280;5513;50.580;8.818;2023-03-18T03:57:43;98633.75;;;8.93;100.00
10921;BME280;5513;50.580;8.818;2023-03-18T04:00:14;98626.09;;;9.03;100.00
10921;BME280;5513;50.580;8.818;2023-03-18T04:02:46;98621.13;;;9.11;100.00
10921;BME280;5513;50.580;8.818;2023-03-18T04:05:18;98617.94;;;9.06;100.00
10921;BME280;5513;50.580;8.818;2023-03-18T04:07:47;98626.53;;;9.09;100.00
10921;BME280;5513;50.580;8.818;2023-03-18T04:10:17;98630.31;;;9.05;100.00
10921;BME280;5513;50.580;8.818;2023-03-18T04:12:46;98628.22;;;9.10;100.00
10921;BME280;5513;50.580;8.818;2023-03-18T04:15:17;98640.22;;;8.89;100.00
10921;BME280;5513;50.580;8.818;2023-03-18T04:17:47;98642.66;;;9.05;100.00
10921;BME280;5513;50.580;8.818;2023-03-18T04:20:16;98644.56;;;9.03;100.00
10921;BME280;5513;50.580;8.818;2023-03-18T04:22:44;98637.94;;;9.10;100.00
10921;BME280;5513;50.580;8.818;2023-03-18T04:25:13;98641.72;;;9.06;100.00
10921;BME280;5513;50.580;8.818;2023-03-18T04:27:42;98651.78;;;9.13;100.00
10921;BME280;5513;50.580;8.818;2023-03-18T04:30:11;98636.66;;;9.03;100.00
10921;BME280;5513;50.580;8.818;2023-03-18T04:32:42;98635.81;;;9.02;100.00
10921;BME280;5513;50.580;8.818;2023-03-18T04:35:17;98640.69;;;9.08;100.00
10921;BME280;5513;50.580;8.818;2023-03-18T04:37:46;98635.41;;;9.08;100.00
10921;BME280;5513;50.580;8.818;2023-03-18T04:40:16;98642.56;;;9.06;100.00
10921;BME280;5513;50.580;8.818;2023-03-18T04:42:46;98639.50;;;9.00;100.00
10921;BME280;5513;50.580;8.818;2023-03-18T04:45:15;98636.91;;;8.85;100.00
10921;BME280;5513;50.580;8.818;2023-03-18T04:47:44;98643.03;;;8.86;100.00
10921;BME280;5513;50.580;8.818;2023-03-18T04:50:14;98639.53;;;8.85;100.00
10921;BME280;5513;50.580;8.818;2023-03-18T04:52:43;98630.66;;;8.86;100.00
10921;BME280;5513;50.580;8.818;2023-03-18T04:55:13;98641.09;;;8.75;100.00
10921;BME280;5513;50.580;8.818;2023-03-18T04:57:43;98644.47;;;8.77;100.00
10921;BME280;5513;50.580;8.818;2023-03-18T05:00:15;98651.97;;;8.71;100.00
10921;BME280;5513;50.580;8.818;2023-03-18T05:02:47;98654.63;;;8.56;100.00
10921;BME280;5513;50.580;8.818;2023-03-18T05:05:16;98658.50;;;8.78;100.00
10921;BME280;5513;50.580;8.818;2023-03-18T05:07:45;98656.09;;;8.75;100.00
10921;BME280;5513;50.580;8.818;2023-03-18T05:10:14;98659.31;;;8.66;100.00
10921;BME280;5513;50.580;8.818;2023-03-18T05:12:42;98662.03;;;8.78;100.00
10921;BME280;5513;50.580;8.818;2023-03-18T05:15:11;98671.34;;;8.84;100.00
10921;BME280;5513;50.580;8.818;2023-03-18T05:17:42;98670.50;;;8.83;100.00
10921;BME280;5513;50.580;8.818;2023-03-18T05:20:12;98666.44;;;8.78;100.00
10921;BME280;5513;50.580;8.818;2023-03-18T05:22:42;98663.13;;;8.88;100.00
10921;BME280;5513;50.580;8.818;2023-03-18T05:25:10;98669.97;;;8.78;100.00
10921;BME280;5513;50.580;8.818;2023-03-18T05:27:40;98672.06;;;8.86;100.00
10921;BME280;5513;50.580;8.818;2023-03-18T05:30:09;98667.75;;;8.85;100.00
10921;BME280;5513;50.580;8.818;2023-03-18T05:32:38;98666.94;;;8.97;100.00
10921;BME280;5513;50.580;8.818;2023-03-18T05:35:08;98665.00;;;8.86;100.00
10921;BME280;5513;50.580;8.818;2023-03-18T05:37:37;98664.59;;;8.93;100.00
10921;BME280;5513;50.580;8.818;2023-03-18T05:40:08;98671.94;;;9.02;100.00
10921;BME280;5513;50.580;8.818;2023-03-18T05:42:38;98673.47;;;8.92;100.00
10921;BME280;5513;50.580;8.818;2023-03-18T05:45:21;98677.44;;;8.99;100.00
10921;BME280;5513;50.580;8.818;2023-03-18T05:47:50;98687.16;;;8.98;100.00
10921;BME280;5513;50.580;8.818;2023-03-18T05:50:27;98675.28;;;8.91;100.00
10921;BME280;5513;50.580;8.818;2023-03-18T05:52:56;98681.19;;;8.95;100.00
10921;BME280;5513;50.580;8.818;2023-03-18T05:55:26;98680.16;;;8.97;100.00
10921;BME280;5513;50.580;8.818;2023-03-18T05:57:56;98683.09;;;8.93;100.00
10921;BME280;5513;50.580;8.818;2023-03-18T06:00:25;98685.44;;;8.97;100.00
10921;BME280;5513;50.580;8.818;2023-03-18T06:02:54;98694.88;;;9.01;100.00
10921;BME280;5513;50.580;8.818;2023-03-18T06:05:25;98693.91;;;9.02;100.00
10921;BME280;5513;50.580;8.818;2023-03-18T06:07:54;98693.91;;;9.02;100.00
10921;BME280;5513;50.580;8.818;2023-03-18T06:10:24;98695.22;;;9.09;100.00
10921;BME280;5513;50.580;8.818;2023-03-18T06:12:54;98692.06;;;9.17;100.00
10921;BME280;5513;50.580;8.818;2023-03-18T06:15:22;98696.25;;;9.07;100.00
10921;BME280;5513;50.580;8.818;2023-03-18T06:17:51;98705.56;;;9.12;100.00
10921;BME280;5513;50.580;8.818;2023-03-18T06:20:20;98707.06;;;9.16;100.00
10921;BME280;5513;50.580;8.818;2023-03-18T06:22:49;98707.47;;;9.10;100.00
10921;BME280;5513;50.580;8.818;2023-03-18T06:25:18;98713.50;;;9.12;100.00
10921;BME280;5513;50.580;8.818;2023-03-18T06:27:47;98707.75;;;9.06;100.00
10921;BME280;5513;50.580;8.818;2023-03-18T06:30:18;98704.38;;;9.04;100.00
10921;BME280;5513;50.580;8.818;2023-03-18T06:32:46;98704.16;;;9.07;100.00
10921;BME280;5513;50.580;8.818;2023-03-18T06:35:15;98706.66;;;8.96;100.00
10921;BME280;5513;50.580;8.818;2023-03-18T06:37:46;98706.28;;;9.02;100.00
10921;BME280;5513;50.580;8.818;2023-03-18T06:40:16;98714.31;;;9.00;100.00
10921;BME280;5513;50.580;8.818;2023-03-18T06:42:44;98718.75;;;9.00;100.00
10921;BME280;5513;50.580;8.818;2023-03-18T06:45:12;98712.50;;;9.01;100.00
10921;BME280;5513;50.580;8.818;2023-03-18T06:47:42;98722.97;;;9.02;100.00
10921;BME280;5513;50.580;8.818;2023-03-18T06:50:12;98722.88;;;9.04;100.00
10921;BME280;5513;50.580;8.818;2023-03-18T06:52:41;98720.19;;;9.18;100.00
10921;BME280;5513;50.580;8.818;2023-03-18T06:55:09;98726.25;;;9.33;100.00
10921;BME280;5513;50.580;8.818;2023-03-18T06:57:38;98727.84;;;9.35;100.00
10921;BME280;5513;50.580;8.818;2023-03-18T07:00:09;98712.53;;;9.40;100.00
10921;BME280;5513;50.580;8.818;2023-03-18T07:02:38;98721.88;;;9.46;100.00
10921;BME280;5513;50.580;8.818;2023-03-18T07:05:10;98730.22;;;9.53;100.00
10921;BME280;5513;50.580;8.818;2023-03-18T07:07:39;98738.38;;;9.62;100.00
10921;BME280;5513;50.580;8.818;2023-03-18T07:10:17;98734.78;;;9.63;100.00
10921;BME280;5513;50.580;8.818;2023-03-18T07:12:49;98728.03;;;9.59;100.00
10921;BME280;5513;50.580;8.818;2023-03-18T07:15:18;98733.09;;;9.62;100.00
10921;BME280;5513;50.580;8.818;2023-03-18T07:17:49;98727.75;;;9.89;100.00
10921;BME280;5513;50.580;8.818;2023-03-18T07:20:20;98732.41;;;9.98;100.00
10921;BME280;5513;50.580;8.818;2023-03-18T07:22:50;98732.84;;;10.05;100.00
10921;BME280;5513;50.580;8.818;2023-03-18T07:25:18;98730.28;;;9.91;100.00
10921;BME280;5513;50.580;8.818;2023-03-18T07:27:48;98729.25;;;10.06;100.00
10921;BME280;5513;50.580;8.818;2023-03-18T07:30:17;98734.34;;;10.22;100.00
10921;BME280;5513;50.580;8.818;2023-03-18T07:32:47;98730.31;;;10.29;100.00
10921;BME280;5513;50.580;8.818;2023-03-18T07:35:17;98729.91;;;10.35;100.00
10921;BME280;5513;50.580;8.818;2023-03-18T07:37:47;98725.97;;;10.28;100.00
10921;BME280;5513;50.580;8.818;2023-03-18T07:40:15;98727.88;;;10.39;100.00
10921;BME280;5513;50.580;8.818;2023-03-18T07:42:45;98719.59;;;10.56;100.00
10921;BME280;5513;50.580;8.818;2023-03-18T07:45:14;98720.63;;;10.66;100.00
10921;BME280;5513;50.580;8.818;2023-03-18T07:47:42;98724.66;;;10.59;100.00
10921;BME280;5513;50.580;8.818;2023-03-18T07:50:13;98716.19;;;10.67;100.00
10921;BME280;5513;50.580;8.818;2023-03-18T07:52:42;98725.81;;;10.68;100.00
10921;BME280;5513;50.580;8.818;2023-03-18T07:55:12;98718.88;;;10.91;100.00
10921;BME280;5513;50.580;8.818;2023-03-18T07:57:41;98717.28;;;10.88;100.00
10921;BME280;5513;50.580;8.818;2023-03-18T08:00:10;98721.13;;;11.08;100.00
10921;BME280;5513;50.580;8.818;2023-03-18T08:02:40;98714.19;;;11.18;100.00
10921;BME280;5513;50.580;8.818;2023-03-18T08:05:09;98722.59;;;11.36;100.00
10921;BME280;5513;50.580;8.818;2023-03-18T08:07:38;98722.19;;;11.53;100.00
10921;BME280;5513;50.580;8.818;2023-03-18T08:10:07;98709.91;;;11.52;100.00
10921;BME280;5513;50.580;8.818;2023-03-18T08:12:39;98708.13;;;11.64;100.00
10921;BME280;5513;50.580;8.818;2023-03-18T08:15:18;98711.69;;;11.52;100.00
10921;BME280;5513;50.580;8.818;2023-03-18T08:17:49;98706.97;;;11.79;100.00
10921;BME280;5513;50.580;8.818;2023-03-18T08:20:18;98710.00;;;11.86;100.00
10921;BME280;5513;50.580;8.818;2023-03-18T08:22:47;98709.53;;;11.81;100.00
10921;BME280;5513;50.580;8.818;2023-03-18T08:25:17;98698.22;;;11.90;100.00
10921;BME280;5513;50.580;8.818;2023-03-18T08:27:49;98706.06;;;11.91;100.00
10921;BME280;5513;50.580;8.818;2023-03-18T08:30:18;98707.41;;;11.97;100.00
10921;BME280;5513;50.580;8.818;2023-03-18T08:32:46;98708.72;;;12.02;100.00
10921;BME280;5513;50.580;8.818;2023-03-18T08:35:15;98712.72;;;12.19;100.00
10921;BME280;5513;50.580;8.818;2023-03-18T08:37:46;98719.00;;;12.29;100.00
10921;BME280;5513;50.580;8.818;2023-03-18T08:40:17;98723.47;;;12.18;100.00
10921;BME280;5513;50.580;8.818;2023-03-18T08:42:46;98710.59;;;12.36;100.00
10921;BME280;5513;50.580;8.818;2023-03-18T08:45:19;98716.59;;;12.49;100.00
10921;BME280;5513;50.580;8.818;2023-03-18T08:47:49;98720.59;;;12.66;100.00
10921;BME280;5513;50.580;8.818;2023-03-18T08:50:18;98719.75;;;12.65;100.00
10921;BME280;5513;50.580;8.818;2023-03-18T08:52:46;98710.16;;;12.74;100.00
10921;BME280;5513;50.580;8.818;2023-03-18T08:55:15;98713.88;;;13.05;100.00
10921;BME280;5513;50.580;8.818;2023-03-18T08:57:43;98717.47;;;13.15;100.00
10921;BME280;5513;50.580;8.818;2023-03-18T09:00:13;98718.97;;;12.97;100.00
10921;BME280;5513;50.580;8.818;2023-03-18T09:02:46;98708.19;;;13.09;100.00
10921;BME280;5513;50.580;8.818;2023-03-18T09:05:14;98704.13;;;13.37;100.00
10921;BME280;5513;50.580;8.818;2023-03-18T09:07:43;98704.34;;;13.45;100.00
10921;BME280;5513;50.580;8.818;2023-03-18T09:10:13;98703.16;;;13.70;100.00
10921;BME280;5513;50.580;8.818;2023-03-18T09:12:43;98706.66;;;13.71;100.00
10921;BME280;5513;50.580;8.818;2023-03-18T09:15:14;98701.78;;;13.76;100.00
10921;BME280;5513;50.580;8.818;2023-03-18T09:17:43;98711.66;;;13.85;100.00
10921;BME280;5513;50.580;8.818;2023-03-18T09:20:27;98706.34;;;14.16;100.00
10921;BME280;5513;50.580;8.818;2023-03-18T09:22:57;98708.88;;;14.38;100.00
10921;BME280;5513;50.580;8.818;2023-03-18T09:25:27;98702.44;;;14.41;100.00
10921;BME280;5513;50.580;8.818;2023-03-18T09:27:56;98713.22;;;14.70;100.00
10921;BME280;5513;50.580;8.818;2023-03-18T09:30:26;98710.00;;;14.76;100.00
10921;BME280;5513;50.580;8.818;2023-03-18T09:32:56;98702.81;;;14.67;100.00
10921;BME280;5513;50.580;8.818;2023-03-18T09:35:28;98705.59;;;14.55;100.00
10921;BME280;5513;50.580;8.818;2023-03-18T09:37:59;98706.09;;;14.70;100.00
10921;BME280;5513;50.580;8.818;2023-03-18T09:40:29;98704.81;;;14.74;100.00
10921;BME280;5513;50.580;8.818;2023-03-18T09:43:11;98705.50;;;14.67;100.00
10921;BME280;5513;50.580;8.818;2023-03-18T09:45:53;98699.69;;;15.02;100.00
10921;BME280;5513;50.580;8.818;2023-03-18T09:48:57;98697.88;;;15.02;100.00
10921;BME280;5513;50.580;8.818;2023-03-18T09:51:42;98698.00;;;14.91;100.00
10921;BME280;5513;50.580;8.818;2023-03-18T09:54:19;98695.50;;;14.99;100.00
10921;BME280;5513;50.580;8.818;2023-03-18T09:56:51;98698.88;;;15.11;100.00
10921;BME280;5513;50.580;8.818;2023-03-18T09:59:23;98692.84;;;15.18;100.00
10921;BME280;5513;50.580;8.818;2023-03-18T10:01:55;98694.38;;;15.21;100.00
10921;BME280;5513;50.580;8.818;2023-03-18T10:04:27;98690.88;;;15.30;100.00
10921;BME280;5513;50.580;8.818;2023-03-18T10:07:10;98698.75;;;15.51;100.00
10921;BME280;5513;50.580;8.818;2023-03-18T10:09:42;98700.63;;;15.60;100.00
10921;BME280;5513;50.580;8.818;2023-03-18T10:12:16;98699.19;;;15.17;100.00
10921;BME280;5513;50.580;8.818;2023-03-18T10:14:55;98705.22;;;15.58;100.00
10921;BME280;5513;50.580;8.818;2023-03-18T10:17:28;98703.69;;;15.94;100.00
10921;BME280;5513;50.580;8.818;2023-03-18T10:19:59;98706.53;;;15.64;100.00
10921;BME280;5513;50.580;8.818;2023-03-18T10:22:47;98700.88;;;15.96;100.00
10921;BME280;5513;50.580;8.818;2023-03-18T10:25:22;98703.66;;;16.04;100.00
10921;BME280;5513;50.580;8.818;2023-03-18T10:28:02;98693.66;;;16.53;100.00
10921;BME280;5513;50.580;8.818;2023-03-18T10:30:45;98696.63;;;16.50;100.00
10921;BME280;5513;50.580;8.818;2023-03-18T10:33:24;98700.63;;;16.36;100.00
10921;BME280;5513;50.580;8.818;2023-03-18T10:36:04;98696.81;;;16.39;100.00
10921;BME280;5513;50.580;8.818;2023-03-18T10:38:38;98699.59;;;16.47;100.00
10921;BME280;5513;50.580;8.818;2023-03-18T10:41:15;98691.41;;;16.48;100.00
10921;BME280;5513;50.580;8.818;2023-03-18T10:43:48;98691.59;;;16.37;100.00
10921;BME280;5513;50.580;8.818;2023-03-18T10:46:18;98682.09;;;16.25;100.00
10921;BME280;5513;50.580;8.818;2023-03-18T10:48:51;98696.00;;;16.28;100.00
10921;BME280;5513;50.580;8.818;2023-03-18T10:51:27;98689.63;;;16.39;100.00
10921;BME280;5513;50.580;8.818;2023-03-18T10:54:03;98687.81;;;16.67;100.00
10921;BME280;5513;50.580;8.818;2023-03-18T10:56:35;98696.22;;;16.82;100.00
10921;BME280;5513;50.580;8.818;2023-03-18T10:59:10;98685.47;;;16.92;100.00
10921;BME280;5513;50.580;8.818;2023-03-18T11:01:39;98699.19;;;16.79;100.00
10921;BME280;5513;50.580;8.818;2023-03-18T11:04:11;98696.81;;;17.03;100.00
10921;BME280;5513;50.580;8.818;2023-03-18T11:06:44;98682.97;;;17.08;100.00
10921;BME280;5513;50.580;8.818;2023-03-18T11:09:19;98687.22;;;17.28;100.00
10921;BME280;5513;50.580;8.818;2023-03-18T11:11:52;98673.81;;;17.10;100.00
10921;BME280;5513;50.580;8.818;2023-03-18T11:14:27;98682.69;;;16.83;100.00
10921;BME280;5513;50.580;8.818;2023-03-18T11:16:58;98678.47;;;17.08;100.00
10921;BME280;5513;50.580;8.818;2023-03-18T11:19:29;98672.75;;;17.39;100.00
10921;BME280;5513;50.580;8.818;2023-03-18T11:22:02;98675.19;;;17.68;100.00
10921;BME280;5513;50.580;8.818;2023-03-18T11:24:33;98675.66;;;17.81;100.00
10921;BME280;5513;50.580;8.818;2023-03-18T11:30:13;98670.69;;;18.46;98.67
10921;BME280;5513;50.580;8.818;2023-03-18T11:33:03;98671.38;;;18.22;95.28
10921;BME280;5513;50.580;8.818;2023-03-18T11:35:36;98669.41;;;18.58;96.00
10921;BME280;5513;50.580;8.818;2023-03-18T11:38:13;98666.97;;;18.65;95.02
10921;BME280;5513;50.580;8.818;2023-03-18T11:40:44;98678.25;;;18.51;92.71
10921;BME280;5513;50.580;8.818;2023-03-18T11:43:20;98672.88;;;18.51;93.02
10921;BME280;5513;50.580;8.818;2023-03-18T11:45:54;98666.94;;;18.05;96.49
10921;BME280;5513;50.580;8.818;2023-03-18T11:48:29;98674.91;;;18.23;99.07
10921;BME280;5513;50.580;8.818;2023-03-18T11:51:07;98669.56;;;18.57;98.80
10921;BME280;5513;50.580;8.818;2023-03-18T11:53:50;98674.00;;;18.14;99.40
10921;BME280;5513;50.580;8.818;2023-03-18T11:56:29;98676.88;;;18.73;94.94
10921;BME280;5513;50.580;8.818;2023-03-18T11:59:22;98663.72;;;18.96;95.77
10921;BME280;5513;50.580;8.818;2023-03-18T12:02:02;98666.22;;;18.97;93.52
10921;BME280;5513;50.580;8.818;2023-03-18T12:07:46;98665.59;;;19.20;93.42
10921;BME280;5513;50.580;8.818;2023-03-18T12:10:23;98667.25;;;19.04;91.82
10921;BME280;5513;50.580;8.818;2023-03-18T12:13:02;98664.78;;;18.43;95.74
10921;BME280;5513;50.580;8.818;2023-03-18T12:15:47;98664.91;;;18.33;96.29
10921;BME280;5513;50.580;8.818;2023-03-18T12:18:31;98672.22;;;18.23;97.86
10921;BME280;5513;50.580;8.818;2023-03-18T12:21:08;98673.34;;;18.12;99.95
10921;BME280;5513;50.580;8.818;2023-03-18T12:23:59;98665.91;;;18.24;100.00
10921;BME280;5513;50.580;8.818;2023-03-18T12:26:43;98673.09;;;17.97;99.31
10921;BME280;5513;50.580;8.818;2023-03-18T12:32:59;98671.91;;;17.74;100.00
10921;BME280;5513;50.580;8.818;2023-03-18T12:35:46;98667.50;;;17.91;100.00
10921;BME280;5513;50.580;8.818;2023-03-18T12:41:27;98661.72;;;17.60;100.00
10921;BME280;5513;50.580;8.818;2023-03-18T12:44:19;98667.22;;;17.58;100.00
10921;BME280;5513;50.580;8.818;2023-03-18T12:46:53;98655.00;;;17.38;100.00
10921;BME280;5513;50.580;8.818;2023-03-18T12:49:31;98670.00;;;17.31;100.00
10921;BME280;5513;50.580;8.818;2023-03-18T12:52:05;98665.31;;;17.51;100.00
10921;BME280;5513;50.580;8.818;2023-03-18T12:54:38;98657.16;;;17.70;100.00
10921;BME280;5513;50.580;8.818;2023-03-18T12:57:13;98658.97;;;17.69;100.00
10921;BME280;5513;50.580;8.818;2023-03-18T12:59:51;98653.94;;;17.49;100.00
10921;BME280;5513;50.580;8.818;2023-03-18T13:02:40;98643.22;;;17.49;100.00
10921;BME280;5513;50.580;8.818;2023-03-18T13:05:35;98645.50;;;17.61;100.00
10921;BME280;5513;50.580;8.818;2023-03-18T13:08:39;98643.97;;;17.23;100.00
10921;BME280;5513;50.580;8.818;2023-03-18T13:11:13;98649.25;;;17.33;100.00
10921;BME280;5513;50.580;8.818;2023-03-18T13:13:53;98641.97;;;17.07;100.00
10921;BME280;5513;50.580;8.818;2023-03-18T13:16:27;98642.00;;;17.25;100.00
10921;BME280;5513;50.580;8.818;2023-03-18T13:19:00;98648.34;;;17.06;100.00
10921;BME280;5513;50.580;8.818;2023-03-18T13:21:37;98644.22;;;17.12;100.00
10921;BME280;5513;50.580;8.818;2023-03-18T13:27:27;98645.22;;;17.11;100.00
10921;BME280;5513;50.580;8.818;2023-03-18T13:30:03;98645.75;;;17.50;100.00
10921;BME280;5513;50.580;8.818;2023-03-18T13:35:42;98645.56;;;17.87;100.00
10921;BME280;5513;50.580;8.818;2023-03-18T13:38:35;98639.28;;;18.05;100.00
10921;BME280;5513;50.580;8.818;2023-03-18T13:41:19;98636.28;;;17.82;100.00
10921;BME280;5513;50.580;8.818;2023-03-18T13:44:00;98642.28;;;17.76;100.00
10921;BME280;5513;50.580;8.818;2023-03-18T13:46:33;98643.75;;;17.70;100.00
10921;BME280;5513;50.580;8.818;2023-03-18T13:49:16;98635.09;;;17.58;100.00
10921;BME280;5513;50.580;8.818;2023-03-18T13:51:50;98629.19;;;17.55;100.00